sensor_id;sensor_type;location;lat;lon;timestamp;temperature;humidity
16635;DHT22;8431;52.458;9.998;2023-06-04T00:01:13;6.70;99.90
16635;DHT22;8431;52.458;9.998;2023-06-04T00:03:40;6.70;99.90
16635;DHT22;8431;52.458;9.998;2023-06-04T00:06:09;6.70;99.90
16635;DHT22;8431;52.458;9.998;2023-06-04T00:08:36;6.60;99.90
16635;DHT22;8431;52.458;9.998;2023-06-04T00:11:03;6.60;99.90
16635;DHT22;8431;52.458;9.998;2023-06-04T00:13:31;6.60;99.90
16635;DHT22;8431;52.458;9.998;2023-06-04T00:15:58;6.60;99.90
16635;DHT22;8431;52.458;9.998;2023-06-04T00:18:25;6.50;99.90
16635;DHT22;8431;52.458;9.998;2023-06-04T00:20:52;6.50;99.90
16635;DHT22;8431;52.458;9.998;2023-06-04T00:23:20;6.50;99.90
16635;DHT22;8431;52.458;9.998;2023-06-04T00:25:47;6.50;99.90
16635;DHT22;8431;52.458;9.998;2023-06-04T00:28:14;6.50;99.90
16635;DHT22;8431;52.458;9.998;2023-06-04T00:30:42;6.50;99.90
16635;DHT22;8431;52.458;9.998;2023-06-04T00:33:09;6.40;99.90
16635;DHT22;8431;52.458;9.998;2023-06-04T00:35:36;6.40;99.90
16635;DHT22;8431;52.458;9.998;2023-06-04T00:38:03;6.40;99.90
16635;DHT22;8431;52.458;9.998;2023-06-04T00:40:31;6.40;99.90
16635;DHT22;8431;52.458;9.998;2023-06-04T00:42:59;6.30;99.90
16635;DHT22;8431;52.458;9.998;2023-06-04T00:45:26;6.30;99.90
16635;DHT22;8431;52.458;9.998;2023-06-04T00:47:56;6.10;99.90
16635;DHT22;8431;52.458;9.998;2023-06-04T00:50:24;6.10;99.90
16635;DHT22;8431;52.458;9.998;2023-06-04T00:52:51;6.00;99.90
16635;DHT22;8431;52.458;9.998;2023-06-04T00:55:18;6.00;99.90
16635;DHT22;8431;52.458;9.998;2023-06-04T00:57:47;5.90;99.90
16635;DHT22;8431;52.458;9.998;2023-06-04T01:00:14;5.80;99.90
16635;DHT22;8431;52.458;9.998;2023-06-04T01:02:43;5.80;99.90
16635;DHT22;8431;52.458;9.998;2023-06-04T01:05:14;5.80;99.90
16635;DHT22;8431;52.458;9.998;2023-06-04T01:07:44;5.80;99.90
16635;DHT22;8431;52.458;9.998;2023-06-04T01:10:12;5.80;99.90
16635;DHT22;8431;52.458;9.998;2023-06-04T01:12:40;5.70;99.90
16635;DHT22;8431;52.458;9.998;2023-06-04T01:15:10;5.70;99.90
16635;DHT22;8431;52.458;9.998;2023-06-04T01:17:40;5.70;99.90
16635;DHT22;8431;52.458;9.998;2023-06-04T01:20:22;5.70;99.90
16635;DHT22;8431;52.458;9.998;2023-06-04T01:23:08;5.70;99.90
16635;DHT22;8431;52.458;9.998;2023-06-04T01:25:38;5.60;99.90
16635;DHT22;8431;52.458;9.998;2023-06-04T01:28:06;5.60;99.90
16635;DHT22;8431;52.458;9.998;2023-06-04T01:30:36;5.60;99.90
16635;DHT22;8431;52.458;9.998;2023-06-04T01:36:43;5.40;99.90
16635;DHT22;8431;52.458;9.998;2023-06-04T01:39:10;5.40;99.90
16635;DHT22;8431;52.458;9.998;2023-06-04T01:41:37;5.50;99.90
16635;DHT22;8431;52.458;9.998;2023-06-04T01:44:04;5.50;99.90
16635;DHT22;8431;52.458;9.998;2023-06-04T01:46:33;5.50;99.90
16635;DHT22;8431;52.458;9.998;2023-06-04T01:49:04;5.60;99.90
16635;DHT22;8431;52.458;9.998;2023-06-04T01:51:31;5.80;99.90
16635;DHT22;8431;52.458;9.998;2023-06-04T01:53:59;5.70;99.90
16635;DHT22;8431;52.458;9.998;2023-06-04T01:56:26;5.60;99.90
16635;DHT22;8431;52.458;9.998;2023-06-04T01:58:56;5.50;99.90
16635;DHT22;8431;52.458;9.998;2023-06-04T02:01:23;5.40;99.90
16635;DHT22;8431;52.458;9.998;2023-06-04T02:03:51;5.40;99.90
16635;DHT22;8431;52.458;9.998;2023-06-04T02:06:19;5.20;99.90
16635;DHT22;8431;52.458;9.998;2023-06-04T02:08:46;5.10;99.90
16635;DHT22;8431;52.458;9.998;2023-06-04T02:11:13;5.00;99.90
16635;DHT22;8431;52.458;9.998;2023-06-04T02:13:40;5.10;99.90
16635;DHT22;8431;52.458;9.998;2023-06-04T02:16:07;5.00;99.90
16635;DHT22;8431;52.458;9.998;2023-06-04T02:18:34;4.90;99.90
16635;DHT22;8431;52.458;9.998;2023-06-04T02:21:03;4.80;99.90
16635;DHT22;8431;52.458;9.998;2023-06-04T02:23:30;4.80;99.90
16635;DHT22;8431;52.458;9.998;2023-06-04T02:25:57;4.90;99.90
16635;DHT22;8431;52.458;9.998;2023-06-04T02:28:23;4.80;99.90
16635;DHT22;8431;52.458;9.998;2023-06-04T02:30:51;4.80;99.90
16635;DHT22;8431;52.458;9.998;2023-06-04T02:33:18;4.80;99.90
16635;DHT22;8431;52.458;9.998;2023-06-04T02:35:46;4.80;99.90
16635;DHT22;8431;52.458;9.998;2023-06-04T02:38:14;4.70;99.90
16635;DHT22;8431;52.458;9.998;2023-06-04T02:40:42;4.60;99.90
16635;DHT22;8431;52.458;9.998;2023-06-04T02:43:09;4.60;99.90
16635;DHT22;8431;52.458;9.998;2023-06-04T02:45:36;4.70;99.90
16635;DHT22;8431;52.458;9.998;2023-06-04T02:48:03;4.70;99.90
16635;DHT22;8431;52.458;9.998;2023-06-04T02:50:30;4.70;99.90
16635;DHT22;8431;52.458;9.998;2023-06-04T02:52:57;4.60;99.90
16635;DHT22;8431;52.458;9.998;2023-06-04T02:55:26;4.50;99.90
16635;DHT22;8431;52.458;9.998;2023-06-04T02:57:53;4.50;99.90
16635;DHT22;8431;52.458;9.998;2023-06-04T03:00:20;4.50;99.90
16635;DHT22;8431;52.458;9.998;2023-06-04T03:02:48;4.50;99.90
16635;DHT22;8431;52.458;9.998;2023-06-04T03:05:16;4.40;99.90
16635;DHT22;8431;52.458;9.998;2023-06-04T03:07:44;4.40;99.90
16635;DHT22;8431;52.458;9.998;2023-06-04T03:10:13;4.30;99.90
16635;DHT22;8431;52.458;9.998;2023-06-04T03:12:44;4.30;99.90
16635;DHT22;8431;52.458;9.998;2023-06-04T03:15:12;4.40;99.90
16635;DHT22;8431;52.458;9.998;2023-06-04T03:17:39;4.50;99.90
16635;DHT22;8431;52.458;9.998;2023-06-04T03:20:07;4.50;99.90
16635;DHT22;8431;52.458;9.998;2023-06-04T03:22:34;4.40;99.90
16635;DHT22;8431;52.458;9.998;2023-06-04T03:25:02;4.40;99.90
16635;DHT22;8431;52.458;9.998;2023-06-04T03:27:30;4.50;99.90
16635;DHT22;8431;52.458;9.998;2023-06-04T03:29:59;4.70;99.90
16635;DHT22;8431;52.458;9.998;2023-06-04T03:32:26;4.60;99.90
16635;DHT22;8431;52.458;9.998;2023-06-04T03:34:53;4.70;99.90
16635;DHT22;8431;52.458;9.998;2023-06-04T03:37:21;4.70;99.90
16635;DHT22;8431;52.458;9.998;2023-06-04T03:39:48;4.80;99.90
16635;DHT22;8431;52.458;9.998;2023-06-04T03:42:15;4.80;99.90
16635;DHT22;8431;52.458;9.998;2023-06-04T03:44:42;5.00;99.90
16635;DHT22;8431;52.458;9.998;2023-06-04T03:47:10;5.10;99.90
16635;DHT22;8431;52.458;9.998;2023-06-04T03:49:37;5.20;99.90
16635;DHT22;8431;52.458;9.998;2023-06-04T03:52:04;5.40;99.90
16635;DHT22;8431;52.458;9.998;2023-06-04T03:54:31;5.60;99.90
16635;DHT22;8431;52.458;9.998;2023-06-04T03:56:58;5.80;99.90
16635;DHT22;8431;52.458;9.998;2023-06-04T03:59:25;6.00;99.90
16635;DHT22;8431;52.458;9.998;2023-06-04T04:01:52;6.20;99.90
16635;DHT22;8431;52.458;9.998;2023-06-04T04:04:21;6.40;99.90
16635;DHT22;8431;52.458;9.998;2023-06-04T04:06:48;6.60;99.90
16635;DHT22;8431;52.458;9.998;2023-06-04T04:09:15;6.80;99.90
16635;DHT22;8431;52.458;9.998;2023-06-04T04:11:42;6.90;99.90
16635;DHT22;8431;52.458;9.998;2023-06-04T04:14:09;7.00;99.90
16635;DHT22;8431;52.458;9.998;2023-06-04T04:16:36;7.20;99.90
16635;DHT22;8431;52.458;9.998;2023-06-04T04:19:03;7.50;99.90
16635;DHT22;8431;52.458;9.998;2023-06-04T04:21:34;7.70;99.90
16635;DHT22;8431;52.458;9.998;2023-06-04T04:24:03;7.80;99.90
16635;DHT22;8431;52.458;9.998;2023-06-04T04:26:31;8.20;99.90
16635;DHT22;8431;52.458;9.998;2023-06-04T04:28:59;8.90;99.90
16635;DHT22;8431;52.458;9.998;2023-06-04T04:31:27;9.70;99.90
16635;DHT22;8431;52.458;9.998;2023-06-04T04:33:55;9.60;99.90
16635;DHT22;8431;52.458;9.998;2023-06-04T04:36:22;9.20;99.90
16635;DHT22;8431;52.458;9.998;2023-06-04T04:38:51;8.90;99.90
16635;DHT22;8431;52.458;9.998;2023-06-04T04:41:19;8.70;99.90
16635;DHT22;8431;52.458;9.998;2023-06-04T04:43:48;8.50;99.90
16635;DHT22;8431;52.458;9.998;2023-06-04T04:46:15;8.40;99.90
16635;DHT22;8431;52.458;9.998;2023-06-04T04:48:42;8.30;99.90
16635;DHT22;8431;52.458;9.998;2023-06-04T04:51:09;8.20;99.90
16635;DHT22;8431;52.458;9.998;2023-06-04T04:53:36;8.30;99.90
16635;DHT22;8431;52.458;9.998;2023-06-04T04:56:05;8.40;99.90
16635;DHT22;8431;52.458;9.998;2023-06-04T04:58:35;8.50;99.90
16635;DHT22;8431;52.458;9.998;2023-06-04T05:01:02;8.60;99.90
16635;DHT22;8431;52.458;9.998;2023-06-04T05:03:29;8.70;99.90
16635;DHT22;8431;52.458;9.998;2023-06-04T05:05:56;8.90;99.90
16635;DHT22;8431;52.458;9.998;2023-06-04T05:08:23;9.00;99.90
16635;DHT22;8431;52.458;9.998;2023-06-04T05:10:50;9.10;99.90
16635;DHT22;8431;52.458;9.998;2023-06-04T05:13:18;9.20;99.90
16635;DHT22;8431;52.458;9.998;2023-06-04T05:15:46;9.30;99.90
16635;DHT22;8431;52.458;9.998;2023-06-04T05:18:14;9.40;99.90
16635;DHT22;8431;52.458;9.998;2023-06-04T05:20:42;9.40;99.90
16635;DHT22;8431;52.458;9.998;2023-06-04T05:23:09;9.60;99.90
16635;DHT22;8431;52.458;9.998;2023-06-04T05:25:38;9.80;99.90
16635;DHT22;8431;52.458;9.998;2023-06-04T05:28:06;10.00;99.90
16635;DHT22;8431;52.458;9.998;2023-06-04T05:30:35;10.30;99.90
16635;DHT22;8431;52.458;9.998;2023-06-04T05:33:07;10.50;99.90
16635;DHT22;8431;52.458;9.998;2023-06-04T05:35:34;10.90;99.90
16635;DHT22;8431;52.458;9.998;2023-06-04T05:38:05;11.80;99.90
16635;DHT22;8431;52.458;9.998;2023-06-04T05:40:33;12.90;99.90
16635;DHT22;8431;52.458;9.998;2023-06-04T05:43:00;13.90;99.90
16635;DHT22;8431;52.458;9.998;2023-06-04T05:45:27;14.50;99.90
16635;DHT22;8431;52.458;9.998;2023-06-04T05:47:56;14.80;99.90
16635;DHT22;8431;52.458;9.998;2023-06-04T05:50:23;14.60;99.90
16635;DHT22;8431;52.458;9.998;2023-06-04T05:53:17;13.90;99.90
16635;DHT22;8431;52.458;9.998;2023-06-04T05:55:44;13.20;99.90
16635;DHT22;8431;52.458;9.998;2023-06-04T05:58:11;12.70;99.90
16635;DHT22;8431;52.458;9.998;2023-06-04T06:00:38;12.30;99.90
16635;DHT22;8431;52.458;9.998;2023-06-04T06:03:07;12.10;99.90
16635;DHT22;8431;52.458;9.998;2023-06-04T06:05:35;12.00;99.90
16635;DHT22;8431;52.458;9.998;2023-06-04T06:08:02;12.00;99.90
16635;DHT22;8431;52.458;9.998;2023-06-04T06:10:29;12.00;99.90
16635;DHT22;8431;52.458;9.998;2023-06-04T06:12:56;12.10;99.90
16635;DHT22;8431;52.458;9.998;2023-06-04T06:15:23;12.10;99.90
16635;DHT22;8431;52.458;9.998;2023-06-04T06:17:50;12.30;99.90
16635;DHT22;8431;52.458;9.998;2023-06-04T06:20:19;13.00;99.90
16635;DHT22;8431;52.458;9.998;2023-06-04T06:22:48;14.10;99.90
16635;DHT22;8431;52.458;9.998;2023-06-04T06:25:15;15.30;99.90
16635;DHT22;8431;52.458;9.998;2023-06-04T06:27:42;16.30;99.90
16635;DHT22;8431;52.458;9.998;2023-06-04T06:30:10;17.00;99.90
16635;DHT22;8431;52.458;9.998;2023-06-04T06:32:37;17.40;99.90
16635;DHT22;8431;52.458;9.998;2023-06-04T06:35:05;17.70;99.90
16635;DHT22;8431;52.458;9.998;2023-06-04T06:37:34;17.70;99.90
16635;DHT22;8431;52.458;9.998;2023-06-04T06:40:06;17.20;99.90
16635;DHT22;8431;52.458;9.998;2023-06-04T06:42:33;16.10;99.90
16635;DHT22;8431;52.458;9.998;2023-06-04T06:45:00;15.80;99.90
16635;DHT22;8431;52.458;9.998;2023-06-04T06:47:27;15.50;99.90
16635;DHT22;8431;52.458;9.998;2023-06-04T06:49:55;15.30;99.90
16635;DHT22;8431;52.458;9.998;2023-06-04T06:52:22;15.40;99.90
16635;DHT22;8431;52.458;9.998;2023-06-04T06:54:50;15.30;99.90
16635;DHT22;8431;52.458;9.998;2023-06-04T06:57:18;15.30;99.90
16635;DHT22;8431;52.458;9.998;2023-06-04T06:59:45;15.30;99.90
16635;DHT22;8431;52.458;9.998;2023-06-04T07:02:12;15.40;99.90
16635;DHT22;8431;52.458;9.998;2023-06-04T07:04:39;15.40;99.90
16635;DHT22;8431;52.458;9.998;2023-06-04T07:07:06;15.40;99.90
16635;DHT22;8431;52.458;9.998;2023-06-04T07:09:34;15.50;99.90
16635;DHT22;8431;52.458;9.998;2023-06-04T07:12:03;15.50;99.90
16635;DHT22;8431;52.458;9.998;2023-06-04T07:14:30;15.50;99.90
16635;DHT22;8431;52.458;9.998;2023-06-04T07:16:57;15.70;99.90
16635;DHT22;8431;52.458;9.998;2023-06-04T07:19:24;15.80;99.90
16635;DHT22;8431;52.458;9.998;2023-06-04T07:21:54;15.90;99.90
16635;DHT22;8431;52.458;9.998;2023-06-04T07:24:21;16.00;99.90
16635;DHT22;8431;52.458;9.998;2023-06-04T07:26:48;16.10;99.90
16635;DHT22;8431;52.458;9.998;2023-06-04T07:29:17;16.20;99.90
16635;DHT22;8431;52.458;9.998;2023-06-04T07:31:45;16.30;99.90
16635;DHT22;8431;52.458;9.998;2023-06-04T07:34:12;16.30;99.90
16635;DHT22;8431;52.458;9.998;2023-06-04T07:36:40;16.40;99.90
16635;DHT22;8431;52.458;9.998;2023-06-04T07:39:10;16.50;99.90
16635;DHT22;8431;52.458;9.998;2023-06-04T07:41:38;16.60;99.90
16635;DHT22;8431;52.458;9.998;2023-06-04T07:44:05;16.70;99.90
16635;DHT22;8431;52.458;9.998;2023-06-04T07:46:34;16.80;99.90
16635;DHT22;8431;52.458;9.998;2023-06-04T07:49:01;16.90;99.90
16635;DHT22;8431;52.458;9.998;2023-06-04T07:51:28;17.00;99.90
16635;DHT22;8431;52.458;9.998;2023-06-04T07:53:55;17.10;99.90
16635;DHT22;8431;52.458;9.998;2023-06-04T07:56:22;17.20;99.90
16635;DHT22;8431;52.458;9.998;2023-06-04T07:58:49;17.30;99.90
16635;DHT22;8431;52.458;9.998;2023-06-04T08:01:16;17.30;99.90
16635;DHT22;8431;52.458;9.998;2023-06-04T08:03:44;17.40;99.90
16635;DHT22;8431;52.458;9.998;2023-06-04T08:06:12;17.50;99.90
16635;DHT22;8431;52.458;9.998;2023-06-04T08:08:42;17.60;99.90
16635;DHT22;8431;52.458;9.998;2023-06-04T08:11:11;17.60;99.90
16635;DHT22;8431;52.458;9.998;2023-06-04T08:13:39;17.70;99.90
16635;DHT22;8431;52.458;9.998;2023-06-04T08:16:07;17.80;99.90
16635;DHT22;8431;52.458;9.998;2023-06-04T08:18:38;17.80;99.90
16635;DHT22;8431;52.458;9.998;2023-06-04T08:21:09;17.90;99.90
16635;DHT22;8431;52.458;9.998;2023-06-04T08:23:38;17.90;99.90
16635;DHT22;8431;52.458;9.998;2023-06-04T08:26:08;18.00;99.90
16635;DHT22;8431;52.458;9.998;2023-06-04T08:28:36;18.10;99.90
16635;DHT22;8431;52.458;9.998;2023-06-04T08:31:04;18.20;99.90
16635;DHT22;8431;52.458;9.998;2023-06-04T08:33:31;18.40;99.90
16635;DHT22;8431;52.458;9.998;2023-06-04T08:36:00;18.50;99.90
16635;DHT22;8431;52.458;9.998;2023-06-04T08:38:38;18.60;99.90
16635;DHT22;8431;52.458;9.998;2023-06-04T08:41:26;18.50;99.90
16635;DHT22;8431;52.458;9.998;2023-06-04T08:44:00;18.50;98.70
16635;DHT22;8431;52.458;9.998;2023-06-04T08:46:28;18.60;97.70
16635;DHT22;8431;52.458;9.998;2023-06-04T08:49:00;18.60;98.80
16635;DHT22;8431;52.458;9.998;2023-06-04T08:51:28;18.70;99.30
16635;DHT22;8431;52.458;9.998;2023-06-04T08:54:00;18.90;94.90
16635;DHT22;8431;52.458;9.998;2023-06-04T08:56:27;18.90;96.70
16635;DHT22;8431;52.458;9.998;2023-06-04T08:59:00;19.10;96.00
16635;DHT22;8431;52.458;9.998;2023-06-04T09:01:28;19.10;95.40
16635;DHT22;8431;52.458;9.998;2023-06-04T09:03:55;19.10;94.10
16635;DHT22;8431;52.458;9.998;2023-06-04T09:06:24;19.10;92.50
16635;DHT22;8431;52.458;9.998;2023-06-04T09:08:54;19.10;93.50
16635;DHT22;8431;52.458;9.998;2023-06-04T09:11:26;19.20;92.50
16635;DHT22;8431;52.458;9.998;2023-06-04T09:14:08;19.20;92.30
16635;DHT22;8431;52.458;9.998;2023-06-04T09:47:45;20.20;86.70
16635;DHT22;8431;52.458;9.998;2023-06-04T09:50:12;20.40;86.90
16635;DHT22;8431;52.458;9.998;2023-06-04T09:52:43;20.60;87.60
16635;DHT22;8431;52.458;9.998;2023-06-04T09:55:17;20.60;87.00
16635;DHT22;8431;52.458;9.998;2023-06-04T09:57:51;20.70;86.60
16635;DHT22;8431;52.458;9.998;2023-06-04T10:00:37;20.70;83.50
16635;DHT22;8431;52.458;9.998;2023-06-04T10:03:06;20.80;82.10
16635;DHT22;8431;52.458;9.998;2023-06-04T10:05:34;20.90;78.80
16635;DHT22;8431;52.458;9.998;2023-06-04T10:08:03;20.80;78.90
16635;DHT22;8431;52.458;9.998;2023-06-04T10:10:34;20.90;79.60
16635;DHT22;8431;52.458;9.998;2023-06-04T10:13:05;21.00;83.90
16635;DHT22;8431;52.458;9.998;2023-06-04T10:15:35;21.00;78.10
16635;DHT22;8431;52.458;9.998;2023-06-04T10:18:07;21.00;81.90
16635;DHT22;8431;52.458;9.998;2023-06-04T10:20:35;21.10;82.10
16635;DHT22;8431;52.458;9.998;2023-06-04T10:23:02;21.20;77.90
16635;DHT22;8431;52.458;9.998;2023-06-04T10:25:30;21.20;75.90
16635;DHT22;8431;52.458;9.998;2023-06-04T10:27:59;21.30;77.50
16635;DHT22;8431;52.458;9.998;2023-06-04T10:30:45;21.10;77.70
16635;DHT22;8431;52.458;9.998;2023-06-04T10:33:14;21.00;77.20
16635;DHT22;8431;52.458;9.998;2023-06-04T10:36:15;21.10;78.90
16635;DHT22;8431;52.458;9.998;2023-06-04T10:38:45;21.00;76.70
16635;DHT22;8431;52.458;9.998;2023-06-04T10:41:25;21.00;77.60
16635;DHT22;8431;52.458;9.998;2023-06-04T10:44:00;21.10;79.20
16635;DHT22;8431;52.458;9.998;2023-06-04T10:46:38;21.10;76.00
16635;DHT22;8431;52.458;9.998;2023-06-04T10:49:33;21.20;76.40
16635;DHT22;8431;52.458;9.998;2023-06-04T10:52:09;21.30;76.40
16635;DHT22;8431;52.458;9.998;2023-06-04T10:55:03;21.20;72.60
16635;DHT22;8431;52.458;9.998;2023-06-04T10:57:31;21.30;74.40
16635;DHT22;8431;52.458;9.998;2023-06-04T10:59:59;21.30;72.50
16635;DHT22;8431;52.458;9.998;2023-06-04T11:02:27;21.50;74.80
16635;DHT22;8431;52.458;9.998;2023-06-04T11:05:02;21.70;70.00
16635;DHT22;8431;52.458;9.998;2023-06-04T11:07:43;21.80;76.70
